Time;durP1;ratioP1;P1;durP2;ratioP2;P2;SDS_P1;SDS_P2;PMS_P1;PMS_P2;Temp;Humidity;BMP_temperature;BMP_pressure;BME280_temperature;BME280_humidity;BME280_pressure;Samples;Min_cycle;Max_cycle;Signal;HPM_P1;HPM_P2
2022/03/15 00:01:02;;;;;;;27.08;21.55;;;;;;;5.72;nan;102761.97;5129336;27;20106;-61
2022/03/15 00:03:28;;;;;;;28.50;22.10;;;;;;;5.72;nan;102764.53;5132202;27;20125;-61
2022/03/15 00:05:54;;;;;;;27.05;23.00;;;;;;;5.73;nan;102760.31;5110333;28;20130;-61
2022/03/15 00:08:22;;;;;;;26.02;21.15;;;;;;;5.74;nan;102757.84;5112115;27;20590;-61
2022/03/15 00:10:48;;;;;;;25.95;21.00;;;;;;;5.73;nan;102753.50;5101636;28;20396;-59
2022/03/15 00:13:15;;;;;;;24.27;20.67;;;;;;;5.72;nan;102751.69;5090847;28;20034;-61
2022/03/15 00:15:42;;;;;;;23.13;20.38;;;;;;;5.70;nan;102750.66;5091409;28;20023;-59
2022/03/15 00:18:07;;;;;;;27.50;21.83;;;;;;;5.67;nan;102754.66;5107384;28;20030;-61
2022/03/15 00:20:34;;;;;;;29.92;20.48;;;;;;;5.62;nan;102757.75;5118221;27;20019;-61
2022/03/15 00:23:00;;;;;;;25.30;20.45;;;;;;;5.58;nan;102747.06;5111020;28;20015;-59
2022/03/15 00:25:26;;;;;;;25.58;21.48;;;;;;;5.58;nan;102741.91;5109795;27;20032;-61
2022/03/15 00:27:52;;;;;;;24.17;21.02;;;;;;;5.58;nan;102744.47;5095986;28;20019;-62
2022/03/15 00:30:19;;;;;;;24.88;21.40;;;;;;;5.55;nan;102742.56;5111531;27;20045;-61
2022/03/15 00:32:45;;;;;;;29.13;22.50;;;;;;;5.50;nan;102742.19;5106837;27;20023;-59
2022/03/15 00:35:16;;;;;;;24.03;21.20;;;;;;;5.46;nan;102754.66;5123007;27;20019;-61
2022/03/15 00:37:46;;;;;;;27.40;21.17;;;;;;;5.43;nan;102754.41;5112888;27;20031;-59
2022/03/15 00:40:13;;;;;;;23.63;21.13;;;;;;;5.42;nan;102758.66;5119467;27;20024;-60
2022/03/15 00:42:39;;;;;;;23.07;20.60;;;;;;;5.40;nan;102755.03;5114298;27;20395;-61
2022/03/15 00:45:06;;;;;;;24.77;20.83;;;;;;;5.36;nan;102761.59;5120886;27;20023;-60
2022/03/15 00:47:31;;;;;;;24.27;20.17;;;;;;;5.33;nan;102763.00;5117604;27;20024;-60
2022/03/15 00:49:57;;;;;;;28.00;22.10;;;;;;;5.27;nan;102759.16;5131214;27;20531;-60
2022/03/15 00:52:22;;;;;;;28.37;21.23;;;;;;;5.23;nan;102759.69;5131159;27;20037;-59
2022/03/15 00:54:48;;;;;;;26.70;20.40;;;;;;;5.18;nan;102750.66;5131019;27;20067;-61
2022/03/15 00:57:13;;;;;;;29.10;21.17;;;;;;;5.13;nan;102746.78;5131234;27;20034;-61
2022/03/15 00:59:39;;;;;;;25.67;21.70;;;;;;;5.12;nan;102750.13;5124523;27;20092;-60
2022/03/15 01:02:04;;;;;;;27.37;22.43;;;;;;;5.10;nan;102746.53;5116786;27;20023;-61
2022/03/15 01:04:29;;;;;;;26.73;20.70;;;;;;;5.07;nan;102734.34;5130840;27;20027;-61
2022/03/15 01:06:55;;;;;;;27.03;22.00;;;;;;;5.05;nan;102735.88;5130649;27;20050;-61
2022/03/15 01:09:21;;;;;;;22.40;20.33;;;;;;;5.03;nan;102743.47;5130928;27;20041;-61
2022/03/15 01:11:46;;;;;;;26.00;20.97;;;;;;;5.03;nan;102745.13;5131074;27;20030;-61
2022/03/15 01:14:12;;;;;;;25.93;21.73;;;;;;;5.03;nan;102738.31;5130755;27;20021;-61
2022/03/15 01:16:37;;;;;;;24.57;21.10;;;;;;;5.04;nan;102745.25;5119647;27;20532;-61
2022/03/15 01:19:05;;;;;;;26.40;21.17;;;;;;;5.07;nan;102741.16;5112241;27;20489;-61
2022/03/15 01:21:31;;;;;;;24.03;20.00;;;;;;;5.10;nan;102741.41;5130896;27;20023;-61
2022/03/15 01:23:56;;;;;;;30.00;20.50;;;;;;;5.11;nan;102740.66;5130252;27;20119;-59
2022/03/15 01:26:22;;;;;;;25.43;19.67;;;;;;;5.13;nan;102741.66;5130462;27;20131;-61
2022/03/15 01:28:47;;;;;;;24.27;19.13;;;;;;;5.13;nan;102739.06;5130236;27;20041;-60
2022/03/15 01:31:13;;;;;;;28.17;20.87;;;;;;;5.12;nan;102734.72;5130203;27;20071;-59
2022/03/15 01:33:38;;;;;;;24.07;19.63;;;;;;;5.13;nan;102733.94;5130788;27;20015;-59
2022/03/15 01:36:04;;;;;;;24.47;20.13;;;;;;;5.13;nan;102723.66;5128805;27;20433;-60
2022/03/15 01:38:30;;;;;;;27.90;19.73;;;;;;;5.12;nan;102711.59;5109963;28;20511;-61
2022/03/15 01:40:55;;;;;;;26.93;19.77;;;;;;;5.09;nan;102721.63;5109793;28;20024;-61
2022/03/15 01:43:21;;;;;;;24.90;19.23;;;;;;;5.10;nan;102718.25;5109856;28;20266;-60
2022/03/15 01:45:46;;;;;;;24.77;18.87;;;;;;;5.09;nan;102707.06;5108984;28;20035;-60
2022/03/15 01:48:11;;;;;;;25.70;19.80;;;;;;;5.09;nan;102713.91;5117714;27;20023;-60
2022/03/15 01:50:37;;;;;;;26.17;20.30;;;;;;;5.09;nan;102706.19;5130133;27;20621;-60
2022/03/15 01:53:03;;;;;;;21.80;19.20;;;;;;;5.08;nan;102704.38;5130336;27;20019;-58
2022/03/15 01:55:29;;;;;;;28.67;20.47;;;;;;;5.04;nan;102708.34;5130339;27;20031;-61
2022/03/15 01:57:55;;;;;;;23.87;18.40;;;;;;;5.03;nan;102702.34;5111864;28;20022;-61
2022/03/15 02:00:21;;;;;;;25.77;19.47;;;;;;;5.01;nan;102703.88;5129844;28;20048;-61
2022/03/15 02:02:46;;;;;;;23.67;18.33;;;;;;;5.00;nan;102704.63;5129867;28;20329;-61
2022/03/15 02:05:12;;;;;;;24.47;18.30;;;;;;;4.99;nan;102705.41;5118171;28;20035;-61
2022/03/15 02:07:38;;;;;;;22.23;17.77;;;;;;;4.97;nan;102704.38;5109704;28;20034;-61
2022/03/15 02:10:07;;;;;;;26.50;18.07;;;;;;;4.96;nan;102700.03;5109563;28;20019;-60
2022/03/15 02:12:34;;;;;;;21.03;18.50;;;;;;;4.95;nan;102703.34;5114889;28;20024;-60
2022/03/15 02:15:03;;;;;;;22.10;17.87;;;;;;;4.96;nan;102694.88;5098375;28;20016;-61
2022/03/15 02:17:29;;;;;;;21.23;17.37;;;;;;;4.96;nan;102705.16;5089481;28;20031;-60
2022/03/15 02:19:54;;;;;;;22.90;17.17;;;;;;;4.97;nan;102701.81;5089844;28;20020;-61
2022/03/15 02:22:20;;;;;;;24.97;17.47;;;;;;;4.99;nan;102689.09;5089551;28;20031;-59
2022/03/15 02:24:45;;;;;;;19.23;17.13;;;;;;;4.99;nan;102679.72;5089578;28;20062;-60
2022/03/15 02:27:11;;;;;;;24.20;17.87;;;;;;;4.94;nan;102688.72;5089362;28;20460;-60
2022/03/15 02:29:37;;;;;;;22.90;17.77;;;;;;;4.96;nan;102673.41;5088749;28;20027;-60
2022/03/15 02:32:02;;;;;;;23.03;18.03;;;;;;;4.95;nan;102662.22;5109504;28;20567;-61
2022/03/15 02:34:28;;;;;;;20.70;17.33;;;;;;;4.95;nan;102667.38;5109919;28;20042;-61
2022/03/15 02:36:53;;;;;;;23.45;18.10;;;;;;;4.94;nan;102670.72;5110932;28;20019;-60
2022/03/15 02:39:18;;;;;;;21.33;17.47;;;;;;;4.92;nan;102667.13;5113711;28;20406;-60
2022/03/15 02:41:44;;;;;;;20.03;16.87;;;;;;;4.90;nan;102669.56;5095265;28;20069;-61
2022/03/15 02:44:09;;;;;;;22.27;16.60;;;;;;;4.90;nan;102666.09;5113320;28;20023;-61
2022/03/15 02:46:36;;;;;;;24.77;17.37;;;;;;;4.88;nan;102670.19;5113454;28;20027;-59
2022/03/15 02:49:02;;;;;;;18.92;15.52;;;;;;;4.90;nan;102668.66;5113787;28;20521;-61
2022/03/15 02:51:27;;;;;;;19.93;15.67;;;;;;;4.88;nan;102665.97;5113275;28;20101;-61
2022/03/15 02:53:53;;;;;;;19.90;16.57;;;;;;;4.90;nan;102663.50;5113262;28;20027;-60
2022/03/15 02:56:20;;;;;;;19.33;15.97;;;;;;;4.89;nan;102657.47;5113602;28;20024;-61
2022/03/15 02:58:45;;;;;;;21.17;15.93;;;;;;;4.89;nan;102654.91;5113160;28;20028;-61
2022/03/15 03:01:10;;;;;;;19.88;16.02;;;;;;;4.87;nan;102648.75;5112974;28;20077;-60
2022/03/15 03:03:37;;;;;;;23.15;16.08;;;;;;;4.88;nan;102644.50;5113269;28;20101;-60
2022/03/15 03:06:03;;;;;;;20.00;15.20;;;;;;;4.88;nan;102645.41;5113008;28;20075;-59
2022/03/15 03:08:30;;;;;;;20.13;15.33;;;;;;;4.87;nan;102638.47;5113106;28;20081;-61
2022/03/15 03:10:57;;;;;;;19.42;15.20;;;;;;;4.86;nan;102630.63;5113256;28;20070;-59
2022/03/15 03:13:25;;;;;;;16.50;14.70;;;;;;;4.83;nan;102627.78;5113310;28;20024;-59
2022/03/15 03:15:55;;;;;;;22.97;15.53;;;;;;;4.83;nan;102622.66;5112811;28;20030;-60
2022/03/15 03:18:21;;;;;;;19.97;16.20;;;;;;;4.78;nan;102623.19;5112611;28;20020;-60
2022/03/15 03:20:46;;;;;;;21.83;16.33;;;;;;;4.76;nan;102619.59;5112995;28;20029;-61
2022/03/15 03:23:12;;;;;;;19.13;14.63;;;;;;;4.77;nan;102625.59;5112691;28;20039;-61
2022/03/15 03:25:37;;;;;;;17.40;14.93;;;;;;;4.77;nan;102623.03;5112705;28;20102;-61
2022/03/15 03:28:05;;;;;;;19.43;15.53;;;;;;;4.76;nan;102619.59;5112754;28;20023;-60
2022/03/15 03:30:31;;;;;;;17.30;15.43;;;;;;;4.76;nan;102617.03;5112899;28;20053;-60
2022/03/15 03:32:56;;;;;;;20.47;15.53;;;;;;;4.75;nan;102615.19;5112742;28;20027;-61
2022/03/15 03:35:22;;;;;;;18.60;16.47;;;;;;;4.75;nan;102614.31;5112403;28;20474;-61
2022/03/15 03:37:47;;;;;;;17.80;13.97;;;;;;;4.74;nan;102613.41;5112356;28;20016;-60
2022/03/15 03:40:13;;;;;;;20.07;16.00;;;;;;;4.72;nan;102611.47;5112521;28;20106;-60
2022/03/15 03:42:38;;;;;;;21.20;15.70;;;;;;;4.68;nan;102615.44;5112230;28;20521;-60
2022/03/15 03:45:05;;;;;;;18.93;15.40;;;;;;;4.66;nan;102616.97;5112777;28;20047;-61
2022/03/15 03:47:30;;;;;;;18.37;16.03;;;;;;;4.66;nan;102622.13;5111841;28;20030;-61
2022/03/15 03:49:56;;;;;;;20.00;14.97;;;;;;;4.65;nan;102615.19;5112312;28;20027;-61
2022/03/15 03:52:21;;;;;;;17.40;14.77;;;;;;;4.66;nan;102616.97;5112194;28;20054;-60
2022/03/15 03:54:47;;;;;;;19.53;15.30;;;;;;;4.64;nan;102613.41;5112138;28;20081;-59
2022/03/15 03:57:12;;;;;;;18.57;14.80;;;;;;;4.64;nan;102603.13;5112107;28;20026;-61
2022/03/15 03:59:37;;;;;;;19.60;15.47;;;;;;;4.62;nan;102604.66;5112058;28;20023;-60
2022/03/15 04:02:03;;;;;;;21.00;14.70;;;;;;;4.62;nan;102609.81;5112268;28;20413;-61
2022/03/15 04:04:29;;;;;;;20.70;15.15;;;;;;;4.61;nan;102608.00;5111696;28;20387;-61
2022/03/15 04:06:55;;;;;;;20.13;14.60;;;;;;;4.62;nan;102604.66;5111674;28;20086;-60
2022/03/15 04:09:21;;;;;;;16.30;14.35;;;;;;;4.61;nan;102608.00;5111779;28;20024;-61
2022/03/15 04:11:46;;;;;;;23.53;14.80;;;;;;;4.62;nan;102609.81;5112080;28;20042;-61
2022/03/15 04:14:11;;;;;;;19.03;14.00;;;;;;;4.60;nan;102612.25;5112000;28;20028;-61
2022/03/15 04:16:38;;;;;;;16.90;14.83;;;;;;;4.59;nan;102614.69;5111516;28;20426;-60
2022/03/15 04:19:04;;;;;;;18.30;14.43;;;;;;;4.57;nan;102606.81;5111559;28;20027;-61
2022/03/15 04:21:30;;;;;;;19.95;15.10;;;;;;;4.55;nan;102614.41;5111650;28;20102;-60
2022/03/15 04:23:56;;;;;;;19.20;14.50;;;;;;;4.55;nan;102619.53;5111652;28;20102;-60
2022/03/15 04:26:24;;;;;;;18.00;14.13;;;;;;;4.52;nan;102613.25;5111507;28;20023;-60
2022/03/15 04:28:50;;;;;;;18.17;15.30;;;;;;;4.50;nan;102620.81;5111611;28;20034;-60
2022/03/15 04:31:16;;;;;;;18.77;14.97;;;;;;;4.49;nan;102625.81;5111607;28;20023;-60
2022/03/15 04:33:41;;;;;;;18.50;14.40;;;;;;;4.47;nan;102620.56;5111765;28;20023;-61
2022/03/15 04:36:07;;;;;;;17.60;14.47;;;;;;;4.45;nan;102616.97;5111579;28;20027;-60
2022/03/15 04:38:33;;;;;;;20.67;14.13;;;;;;;4.44;nan;102621.19;5111543;28;20035;-60
2022/03/15 04:40:59;;;;;;;18.67;15.13;;;;;;;4.44;nan;102612.63;5111500;28;20379;-61
2022/03/15 04:43:25;;;;;;;22.30;15.60;;;;;;;4.46;nan;102615.31;5111437;28;20506;-60
2022/03/15 04:45:50;;;;;;;17.17;14.17;;;;;;;4.46;nan;102602.47;5111127;28;20019;-61
2022/03/15 04:51:38;;;;;;;19.08;14.45;;;;;;;4.42;nan;102602.22;5110904;28;20106;-60
2022/03/15 04:54:03;;;;;;;16.77;14.70;;;;;;;4.44;nan;102604.91;5110994;28;20479;-58
2022/03/15 04:56:29;;;;;;;17.47;15.43;;;;;;;4.45;nan;102601.56;5111122;28;20058;-60
2022/03/15 04:58:54;;;;;;;18.27;14.00;;;;;;;4.46;nan;102598.25;5110609;28;20342;-61
2022/03/15 05:01:19;;;;;;;16.77;14.97;;;;;;;4.44;nan;102590.38;5110612;28;20034;-60
2022/03/15 05:03:45;;;;;;;17.10;14.33;;;;;;;4.45;nan;102591.28;5110383;28;20027;-61
2022/03/15 05:06:10;;;;;;;20.20;14.00;;;;;;;4.42;nan;102585.91;5110652;28;20126;-60
2022/03/15 05:08:35;;;;;;;18.33;13.97;;;;;;;4.44;nan;102586.94;5111035;28;20050;-61
2022/03/15 05:11:07;;;;;;;18.80;14.43;;;;;;;4.45;nan;102588.72;5110540;28;20027;-61
2022/03/15 05:13:45;;;;;;;16.13;13.70;;;;;;;4.45;nan;102586.16;5110740;28;20383;-60
2022/03/15 05:16:18;;;;;;;17.77;13.90;;;;;;;4.44;nan;102586.94;5110872;28;20081;-61
2022/03/15 05:18:45;;;;;;;17.83;14.33;;;;;;;4.44;nan;102584.38;5110639;28;20023;-60
2022/03/15 05:21:16;;;;;;;19.70;14.63;;;;;;;4.44;nan;102579.22;5111130;28;20402;-60
2022/03/15 05:23:43;;;;;;;18.65;15.10;;;;;;;4.42;nan;102581.69;5110509;28;20019;-61
2022/03/15 05:26:09;;;;;;;17.77;14.20;;;;;;;4.41;nan;102579.84;5110976;28;20016;-61
2022/03/15 05:28:34;;;;;;;18.33;14.43;;;;;;;4.41;nan;102578.94;5110370;28;20102;-59
2022/03/15 05:30:59;;;;;;;17.53;13.40;;;;;;;4.40;nan;102582.28;5110899;28;20093;-60
2022/03/15 05:33:25;;;;;;;18.87;14.50;;;;;;;4.38;nan;102588.97;5110445;28;20357;-61
2022/03/15 05:35:50;;;;;;;18.17;14.70;;;;;;;4.38;nan;102588.97;5110382;28;20069;-61
2022/03/15 05:38:16;;;;;;;19.07;13.73;;;;;;;4.38;nan;102581.25;5110643;28;20110;-58
2022/03/15 05:40:42;;;;;;;18.83;15.03;;;;;;;4.37;nan;102574.34;5110413;28;20015;-61
2022/03/15 05:43:07;;;;;;;16.33;14.63;;;;;;;4.37;nan;102571.78;5110383;28;20055;-59
2022/03/15 05:45:34;;;;;;;19.07;13.60;;;;;;;4.35;nan;102568.16;5110217;28;20020;-60
2022/03/15 05:47:59;;;;;;;20.60;14.87;;;;;;;4.35;nan;102574.22;5110231;28;20106;-61
2022/03/15 05:50:25;;;;;;;18.20;14.17;;;;;;;4.35;nan;102565.59;5110117;28;20069;-59
2022/03/15 05:52:50;;;;;;;18.73;14.70;;;;;;;4.34;nan;102562.13;5109324;28;20539;-60
2022/03/15 05:55:15;;;;;;;18.60;14.60;;;;;;;4.33;nan;102561.22;5108540;28;20019;-60
2022/03/15 05:57:42;;;;;;;20.57;14.57;;;;;;;4.33;nan;102560.34;5109320;28;20050;-61
2022/03/15 06:00:09;;;;;;;17.27;14.73;;;;;;;4.32;nan;102554.31;5108434;28;20080;-60
2022/03/15 06:02:34;;;;;;;18.80;14.03;;;;;;;4.31;nan;102557.66;5106531;28;20088;-61
2022/03/15 06:05:01;;;;;;;18.87;14.47;;;;;;;4.30;nan;102554.97;5107687;28;20027;-58
2022/03/15 06:07:27;;;;;;;20.07;14.50;;;;;;;4.28;nan;102557.38;5107117;28;20061;-60
2022/03/15 06:09:53;;;;;;;21.90;16.87;;;;;;;4.27;nan;102555.59;5102766;28;20023;-60
2022/03/15 06:12:23;;;;;;;22.73;17.43;;;;;;;4.25;nan;102557.13;5111277;28;20024;-59
2022/03/15 06:14:48;;;;;;;25.03;17.80;;;;;;;4.24;nan;102552.75;5112293;28;20020;-60
2022/03/15 06:17:14;;;;;;;28.77;18.93;;;;;;;4.23;nan;102558.66;5108432;28;20026;-61
2022/03/15 06:19:39;;;;;;;27.73;19.93;;;;;;;4.21;nan;102547.34;5109932;28;20031;-60
2022/03/15 06:22:04;;;;;;;26.80;18.43;;;;;;;4.20;nan;102549.03;5113419;28;20999;-60
2022/03/15 06:24:30;;;;;;;21.33;17.10;;;;;;;4.21;nan;102549.91;5113306;28;20016;-61
2022/03/15 06:26:57;;;;;;;23.17;16.90;;;;;;;4.23;nan;102547.50;5113563;28;20023;-59
2022/03/15 06:29:22;;;;;;;21.10;16.30;;;;;;;4.22;nan;102538.91;5109485;27;20027;-60
2022/03/15 06:31:48;;;;;;;18.07;15.67;;;;;;;4.24;nan;102546.72;5116741;27;20387;-60
2022/03/15 06:34:13;;;;;;;19.57;14.90;;;;;;;4.25;nan;102551.97;5114074;27;20031;-60
2022/03/15 06:36:40;;;;;;;22.60;16.07;;;;;;;4.25;nan;102549.41;5111356;28;20032;-61
2022/03/15 06:39:05;;;;;;;19.17;14.93;;;;;;;4.29;nan;102548.00;5113341;28;20052;-61
2022/03/15 06:41:31;;;;;;;21.70;15.90;;;;;;;4.29;nan;102540.31;5113208;28;20106;-60
2022/03/15 06:43:56;;;;;;;21.30;14.97;;;;;;;4.31;nan;102541.34;5112699;28;20383;-61
2022/03/15 06:46:23;;;;;;;19.20;14.87;;;;;;;4.33;nan;102555.22;5112635;28;20478;-61
2022/03/15 06:48:49;;;;;;;18.07;15.07;;;;;;;4.33;nan;102545.81;5111927;28;20072;-61
2022/03/15 06:51:15;;;;;;;16.83;14.90;;;;;;;4.37;nan;102533.28;5113039;28;20012;-61
2022/03/15 06:53:41;;;;;;;21.43;16.17;;;;;;;4.39;nan;102544.56;5113183;28;20026;-61
2022/03/15 06:56:06;;;;;;;16.73;14.60;;;;;;;4.41;nan;102541.34;5112843;28;20414;-60
2022/03/15 06:58:32;;;;;;;19.30;14.63;;;;;;;4.44;nan;102535.59;5113175;28;20054;-61
2022/03/15 07:00:57;;;;;;;23.47;17.77;;;;;;;4.48;nan;102529.91;5112815;28;20395;-59
2022/03/15 07:03:22;;;;;;;15.77;12.93;;;;;;;4.51;nan;102532.78;5112638;28;20383;-60
2022/03/15 07:05:48;;;;;;;17.07;13.27;;;;;;;4.52;nan;102532.00;5112029;28;20042;-59
2022/03/15 07:08:13;;;;;;;14.70;12.83;;;;;;;4.54;nan;102533.03;5108466;28;20032;-60
2022/03/15 07:10:38;;;;;;;15.13;13.53;;;;;;;4.59;nan;102532.50;5112045;27;20035;-60
2022/03/15 07:13:04;;;;;;;18.97;13.07;;;;;;;4.59;nan;102528.25;5112123;28;20016;-60
2022/03/15 07:15:29;;;;;;;17.33;12.40;;;;;;;4.62;nan;102528.53;5110207;27;20019;-60
2022/03/15 07:17:56;;;;;;;16.07;13.07;;;;;;;4.63;nan;102531.97;5112299;27;20459;-60
2022/03/15 07:20:23;;;;;;;17.93;13.17;;;;;;;4.66;nan;102530.56;5112064;28;20407;-60
2022/03/15 07:22:49;;;;;;;19.63;13.83;;;;;;;4.69;nan;102528.25;5111834;28;20528;-60
2022/03/15 07:25:15;;;;;;;17.00;13.50;;;;;;;4.69;nan;102520.53;5110919;28;20115;-60
2022/03/15 07:27:41;;;;;;;17.77;13.83;;;;;;;4.72;nan;102519.91;5105699;28;20432;-59
2022/03/15 07:30:07;;;;;;;16.63;14.17;;;;;;;4.71;nan;102518.13;5111208;28;20034;-60
2022/03/15 07:32:33;;;;;;;18.73;14.40;;;;;;;4.69;nan;102504.25;5111965;28;20027;-61
2022/03/15 07:34:58;;;;;;;21.90;14.60;;;;;;;4.75;nan;102516.72;5094161;28;20081;-60
2022/03/15 07:37:24;;;;;;;21.37;12.77;;;;;;;4.82;nan;102515.53;5112235;28;20055;-60
2022/03/15 07:39:49;;;;;;;17.80;12.93;;;;;;;4.87;nan;102511.69;5112303;28;20077;-61
2022/03/15 07:42:14;;;;;;;18.92;13.02;;;;;;;4.90;nan;102514.50;5111683;27;20179;-61
2022/03/15 07:44:43;;;;;;;15.70;12.33;;;;;;;4.93;nan;102513.06;5101895;27;20063;-61
2022/03/15 07:47:15;;;;;;;16.47;10.73;;;;;;;4.98;nan;102512.56;5106153;27;20449;-58
2022/03/15 07:49:41;;;;;;;14.27;10.90;;;;;;;5.00;nan;102517.03;5107096;28;20019;-61
2022/03/15 07:52:07;;;;;;;15.43;10.65;;;;;;;5.06;nan;102519.22;5104291;28;20567;-58
2022/03/15 07:54:33;;;;;;;15.50;10.03;;;;;;;5.11;nan;102519.63;5112030;28;20015;-60
2022/03/15 07:56:58;;;;;;;12.83;10.80;;;;;;;5.13;nan;102513.81;5106663;27;20365;-60
2022/03/15 07:59:24;;;;;;;15.40;10.30;;;;;;;5.18;nan;102516.72;5116402;27;20023;-61
2022/03/15 08:01:49;;;;;;;17.23;9.60;;;;;;;5.22;nan;102508.50;5128123;27;20098;-58
2022/03/15 08:04:15;;;;;;;11.50;10.13;;;;;;;5.26;nan;102509.66;5111353;28;20031;-61
2022/03/15 08:06:40;;;;;;;17.17;10.15;;;;;;;5.27;nan;102502.06;5111482;28;20109;-61
2022/03/15 08:09:06;;;;;;;14.60;9.40;;;;;;;5.33;nan;102495.63;5111133;28;20062;-61
2022/03/15 08:11:32;;;;;;;12.97;9.13;;;;;;;5.34;nan;102492.28;5111818;28;20115;-61
2022/03/15 08:13:58;;;;;;;14.43;9.40;;;;;;;5.38;nan;102499.44;5111525;28;20558;-58
2022/03/15 08:16:25;;;;;;;14.43;8.18;;;;;;;5.39;nan;102490.97;5104523;28;20098;-60
2022/03/15 08:18:51;;;;;;;11.77;7.78;;;;;;;5.43;nan;102486.97;5097849;28;20055;-60
2022/03/15 08:21:17;;;;;;;12.80;8.88;;;;;;;5.46;nan;102498.41;5101753;27;20052;-60
2022/03/15 08:23:43;;;;;;;12.80;7.97;;;;;;;5.50;nan;102490.16;5112675;27;20027;-60
2022/03/15 08:26:09;;;;;;;10.93;7.90;;;;;;;5.52;nan;102480.88;5112621;27;20023;-61
2022/03/15 08:28:35;;;;;;;12.63;8.85;;;;;;;5.55;nan;102476.75;5111207;28;20049;-61
2022/03/15 08:31:01;;;;;;;17.92;8.25;;;;;;;5.58;nan;102477.00;5109911;28;20027;-61
2022/03/15 08:33:26;;;;;;;12.45;9.05;;;;;;;5.63;nan;102480.84;5099074;28;20058;-60
2022/03/15 08:35:52;;;;;;;10.60;7.43;;;;;;;5.66;nan;102470.78;5110415;28;20012;-60
2022/03/15 08:38:18;;;;;;;15.18;9.43;;;;;;;5.70;nan;102475.38;5110078;28;20077;-59
2022/03/15 08:40:43;;;;;;;14.55;7.88;;;;;;;5.75;nan;102481.81;5098923;28;20031;-60
2022/03/15 08:43:09;;;;;;;9.93;7.70;;;;;;;5.82;nan;102482.28;5094102;28;20012;-60
2022/03/15 08:45:35;;;;;;;13.82;7.68;;;;;;;5.85;nan;102469.63;5090706;28;20099;-60
2022/03/15 08:48:00;;;;;;;10.90;7.00;;;;;;;5.88;nan;102475.06;5090875;28;20078;-60
2022/03/15 08:50:26;;;;;;;10.07;7.38;;;;;;;5.91;nan;102472.69;5089993;28;20030;-59
2022/03/15 08:52:52;;;;;;;12.00;7.38;;;;;;;5.96;nan;102471.38;5095393;28;20344;-59
2022/03/15 08:55:18;;;;;;;11.50;7.30;;;;;;;5.99;nan;102471.59;5110149;28;20323;-59
2022/03/15 08:57:43;;;;;;;13.75;7.43;;;;;;;6.02;nan;102465.81;5110207;28;20044;-60
2022/03/15 09:00:10;;;;;;;12.27;7.55;;;;;;;6.04;nan;102471.97;5110252;28;20042;-61
2022/03/15 09:02:36;;;;;;;13.60;7.15;;;;;;;6.08;nan;102470.56;5110268;28;20019;-61
2022/03/15 09:05:02;;;;;;;12.07;7.63;;;;;;;6.12;nan;102464.88;5109770;28;20438;-60
2022/03/15 09:07:28;;;;;;;11.88;7.05;;;;;;;6.15;nan;102465.13;5110254;28;20079;-61
2022/03/15 09:09:53;;;;;;;12.60;7.25;;;;;;;6.19;nan;102459.41;5110488;28;20113;-60
2022/03/15 09:12:19;;;;;;;12.70;7.63;;;;;;;6.21;nan;102460.41;5110377;28;20019;-61
2022/03/15 09:14:45;;;;;;;15.15;7.72;;;;;;;6.24;nan;102450.34;5109945;28;20049;-59
2022/03/15 09:17:10;;;;;;;12.50;7.43;;;;;;;6.28;nan;102448.91;5089977;28;20422;-59
2022/03/15 09:19:36;;;;;;;9.90;7.05;;;;;;;6.33;nan;102451.84;5089883;28;20015;-59
2022/03/15 09:22:03;;;;;;;15.13;7.65;;;;;;;6.39;nan;102448.81;5089948;28;20456;-61
2022/03/15 09:24:32;;;;;;;17.13;7.68;;;;;;;6.40;nan;102448.94;5089727;28;20027;-61
2022/03/15 09:26:57;;;;;;;16.95;7.22;;;;;;;6.42;nan;102455.09;5090099;28;20050;-61
2022/03/15 09:29:22;;;;;;;10.18;7.40;;;;;;;6.48;nan;102458.13;5089878;28;20024;-60
2022/03/15 09:31:48;;;;;;;11.85;7.07;;;;;;;6.53;nan;102457.59;5089837;28;20024;-61
2022/03/15 09:34:13;;;;;;;12.23;7.47;;;;;;;6.56;nan;102457.81;5089599;28;20028;-59
2022/03/15 09:36:39;;;;;;;16.20;7.07;;;;;;;6.55;nan;102456.03;5090180;28;20023;-61
2022/03/15 09:39:09;;;;;;;9.43;6.28;;;;;;;6.61;nan;102451.31;5089958;28;20104;-60
2022/03/15 09:41:38;;;;;;;12.25;6.47;;;;;;;6.66;nan;102461.97;5090039;28;20463;-61
2022/03/15 09:44:06;;;;;;;9.32;6.57;;;;;;;6.69;nan;102454.47;5089988;28;20027;-61
2022/03/15 09:46:36;;;;;;;13.25;6.60;;;;;;;6.71;nan;102453.78;5089758;28;20028;-61
2022/03/15 09:49:02;;;;;;;10.55;6.38;;;;;;;6.76;nan;102450.66;5089572;28;20384;-61
2022/03/15 09:51:32;;;;;;;9.70;6.70;;;;;;;6.80;nan;102440.69;5099435;28;20027;-59
2022/03/15 09:53:59;;;;;;;12.15;6.40;;;;;;;6.87;nan;102446.31;5107419;28;20537;-61
2022/03/15 09:56:25;;;;;;;13.48;6.93;;;;;;;6.91;nan;102453.44;5108757;28;20024;-61
2022/03/15 09:58:50;;;;;;;14.65;6.72;;;;;;;6.95;nan;102446.06;5109452;28;20077;-59
2022/03/15 10:01:18;;;;;;;10.52;6.13;;;;;;;7.02;nan;102454.22;5109426;28;20027;-60
2022/03/15 10:03:45;;;;;;;11.50;6.70;;;;;;;7.07;nan;102450.31;5108699;28;20025;-61
2022/03/15 10:06:12;;;;;;;9.93;5.55;;;;;;;7.09;nan;102444.50;5109075;28;20044;-61
2022/03/15 10:08:38;;;;;;;8.68;6.47;;;;;;;7.13;nan;102435.28;5109741;28;20020;-61
2022/03/15 10:11:03;;;;;;;8.27;5.60;;;;;;;7.16;nan;102438.09;5109648;28;20088;-60
2022/03/15 10:13:29;;;;;;;11.85;6.68;;;;;;;7.21;nan;102438.44;5116718;28;20479;-61
2022/03/15 10:15:59;;;;;;;11.90;6.38;;;;;;;7.25;nan;102430.09;5115795;28;20018;-61
2022/03/15 10:18:25;;;;;;;7.68;5.43;;;;;;;7.30;nan;102430.44;5108016;28;20019;-60
2022/03/15 10:20:51;;;;;;;10.35;6.00;;;;;;;7.34;nan;102427.28;5105714;28;20387;-61
2022/03/15 10:23:17;;;;;;;9.95;6.25;;;;;;;7.40;nan;102420.00;5108418;28;20027;-61
2022/03/15 10:25:47;;;;;;;10.45;5.90;;;;;;;7.47;nan;102418.72;5108981;28;20023;-60
2022/03/15 10:28:13;;;;;;;12.82;7.10;;;;;;;7.54;nan;102420.06;5109041;28;20040;-59
2022/03/15 10:30:38;;;;;;;12.85;6.00;;;;;;;7.55;nan;102414.13;5109247;28;20023;-59
2022/03/15 10:33:05;;;;;;;12.95;5.78;;;;;;;7.56;nan;102410.75;5108272;28;20510;-59
2022/03/15 10:35:35;;;;;;;9.27;5.95;;;;;;;7.63;nan;102412.97;5108704;28;20016;-60
2022/03/15 10:38:03;;;;;;;16.85;6.95;;;;;;;7.69;nan;102413.41;5108754;28;20024;-61
2022/03/15 10:40:39;;;;;;;10.32;6.47;;;;;;;7.77;nan;102402.72;5109401;28;20570;-60
2022/03/15 10:43:15;;;;;;;10.50;6.75;;;;;;;7.77;nan;102410.44;5108283;28;20062;-59
2022/03/15 10:45:47;;;;;;;12.20;6.72;;;;;;;7.80;nan;102405.50;5108100;28;20446;-61
2022/03/15 10:48:21;;;;;;;9.85;5.95;;;;;;;7.86;nan;102393.00;5105733;28;20030;-61
2022/03/15 10:51:14;;;;;;;11.80;6.55;;;;;;;7.83;nan;102397.06;5107694;28;20360;-60
2022/03/15 10:53:42;;;;;;;10.98;6.00;;;;;;;7.88;nan;102396.56;5098625;28;20575;-60
2022/03/15 10:56:22;;;;;;;9.45;6.28;;;;;;;7.94;nan;102393.53;5108221;28;20368;-59
2022/03/15 10:59:01;;;;;;;11.07;6.72;;;;;;;7.98;nan;102394.63;5111425;27;20019;-59
2022/03/15 11:01:28;;;;;;;10.73;5.95;;;;;;;8.03;nan;102388.09;5112106;28;20055;-60
2022/03/15 11:04:03;;;;;;;10.50;6.32;;;;;;;8.08;nan;102381.53;5112031;28;20027;-59
2022/03/15 11:06:38;;;;;;;11.32;5.88;;;;;;;8.12;nan;102378.38;5112352;28;20547;-60
2022/03/15 11:09:24;;;;;;;11.13;6.10;;;;;;;8.19;nan;102373.59;5112098;28;20107;-60
2022/03/15 11:12:02;;;;;;;8.40;5.38;;;;;;;8.27;nan;102372.44;5094078;28;20107;-60
2022/03/15 11:14:48;;;;;;;8.90;4.93;;;;;;;8.36;nan;102370.47;5112371;28;20028;-59
2022/03/15 11:17:24;;;;;;;8.48;5.72;;;;;;;8.42;nan;102364.78;5091822;28;20071;-60
2022/03/15 11:19:52;;;;;;;11.98;6.32;;;;;;;8.47;nan;102365.13;5102757;28;20047;-56
2022/03/15 11:22:23;;;;;;;9.15;6.22;;;;;;;8.55;nan;102369.06;5110641;28;20101;-61
2022/03/15 11:25:04;;;;;;;10.30;5.90;;;;;;;8.65;nan;102361.16;5112101;28;20388;-61
2022/03/15 11:27:34;;;;;;;10.02;6.18;;;;;;;8.70;nan;102353.72;5109486;28;20034;-60
2022/03/15 11:30:05;;;;;;;10.95;6.78;;;;;;;8.75;nan;102343.66;5112563;28;20035;-61
2022/03/15 11:32:32;;;;;;;14.80;6.25;;;;;;;8.77;nan;102342.97;5112385;28;20055;-61
2022/03/15 11:34:59;;;;;;;11.48;5.70;;;;;;;8.80;nan;102334.50;5112475;28;20023;-60
2022/03/15 11:37:25;;;;;;;13.88;6.47;;;;;;;8.83;nan;102339.84;5112241;28;20019;-58